createdAt,value
2017-05-06T00:00:49.008Z,0
2017-05-06T00:01:50.304Z,0
2017-05-06T00:02:51.579Z,0
2017-05-06T00:03:52.808Z,0
2017-05-06T00:04:54.050Z,0
2017-05-06T00:05:55.376Z,0
2017-05-06T00:06:56.569Z,0
2017-05-06T00:07:57.863Z,0
2017-05-06T00:08:59.123Z,0
2017-05-06T00:10:00.364Z,0
2017-05-06T00:11:01.694Z,0
2017-05-06T00:12:02.878Z,0
2017-05-06T00:13:04.179Z,0
2017-05-06T00:14:05.474Z,0
2017-05-06T00:15:06.699Z,0
2017-05-06T00:16:07.949Z,0
2017-05-06T00:17:09.235Z,0
2017-05-06T00:18:10.644Z,0
2017-05-06T00:19:11.931Z,0
2017-05-06T00:20:13.192Z,0
2017-05-06T00:21:14.455Z,0
2017-05-06T00:22:15.759Z,0
2017-05-06T00:23:16.965Z,0
2017-05-06T00:24:18.229Z,0
2017-05-06T00:25:19.541Z,0
2017-05-06T00:26:20.810Z,0
2017-05-06T00:27:22.062Z,0
2017-05-06T00:28:23.331Z,0
2017-05-06T00:29:24.571Z,0
2017-05-06T00:30:25.850Z,0
2017-05-06T00:31:27.115Z,0
2017-05-06T00:32:28.388Z,0
2017-05-06T00:33:29.644Z,0
2017-05-06T00:34:30.920Z,0
2017-05-06T00:35:32.175Z,0
2017-05-06T00:36:33.413Z,0
2017-05-06T00:37:34.660Z,0
2017-05-06T00:38:35.976Z,0
2017-05-06T00:39:37.248Z,0
2017-05-06T00:40:38.485Z,0
2017-05-06T00:41:39.793Z,0
2017-05-06T00:42:41.055Z,0
2017-05-06T00:43:42.586Z,0
2017-05-06T00:44:43.847Z,0
2017-05-06T00:45:45.076Z,0
2017-05-06T00:46:46.398Z,0
2017-05-06T00:47:47.769Z,0
2017-05-06T00:48:49.075Z,0
2017-05-06T00:49:50.365Z,0
2017-05-06T00:50:51.603Z,0
2017-05-06T00:51:52.852Z,0
2017-05-06T00:52:54.095Z,0
2017-05-06T00:53:55.405Z,0
2017-05-06T00:54:56.688Z,0
2017-05-06T00:55:57.978Z,0
2017-05-06T00:56:59.237Z,0
2017-05-06T00:58:00.491Z,0
2017-05-06T00:59:01.731Z,0
2017-05-06T01:00:03.046Z,0
2017-05-06T01:01:04.445Z,0
2017-05-06T01:02:05.714Z,0
2017-05-06T01:03:06.984Z,0
2017-05-06T01:04:08.233Z,0
2017-05-06T01:05:09.589Z,0
2017-05-06T01:06:10.871Z,0
2017-05-06T01:07:12.192Z,0
2017-05-06T01:08:13.437Z,0
2017-05-06T01:09:14.722Z,0
2017-05-06T01:10:15.998Z,0
2017-05-06T01:11:17.319Z,0
2017-05-06T01:12:18.565Z,0
2017-05-06T01:13:19.870Z,0
2017-05-06T01:14:21.132Z,0
2017-05-06T01:15:22.395Z,0
2017-05-06T01:16:23.683Z,0
2017-05-06T01:17:24.905Z,0
2017-05-06T01:18:26.186Z,0
2017-05-06T01:19:27.470Z,0
2017-05-06T01:20:28.764Z,0
2017-05-06T01:21:30.030Z,0
2017-05-06T01:22:31.279Z,0
2017-05-06T01:23:32.612Z,0
2017-05-06T01:24:33.870Z,0
2017-05-06T01:25:35.133Z,0
2017-05-06T01:26:36.418Z,0
2017-05-06T01:27:37.654Z,0
2017-05-06T01:28:38.909Z,0
2017-05-06T01:29:40.173Z,0
2017-05-06T01:30:41.483Z,0
2017-05-06T01:31:42.750Z,0
2017-05-06T01:32:44.016Z,0
2017-05-06T01:33:45.260Z,0
2017-05-06T01:34:46.533Z,0
2017-05-06T01:35:47.895Z,0
2017-05-06T01:36:49.154Z,0
2017-05-06T01:37:50.408Z,0
2017-05-06T01:38:51.667Z,0
2017-05-06T01:39:52.962Z,0
2017-05-06T01:40:54.291Z,0
2017-05-06T01:41:55.507Z,0
2017-05-06T01:42:56.845Z,0
2017-05-06T01:43:58.115Z,0
2017-05-06T01:44:59.378Z,0
2017-05-06T01:46:00.648Z,0
2017-05-06T01:47:01.935Z,0
2017-05-06T01:48:03.169Z,0
2017-05-06T01:49:04.427Z,0
2017-05-06T01:50:05.703Z,0
2017-05-06T01:51:06.949Z,0
2017-05-06T01:52:08.213Z,0
2017-05-06T01:53:09.506Z,0
2017-05-06T01:54:10.760Z,0
2017-05-06T01:55:12.142Z,0
2017-05-06T01:56:13.393Z,0
2017-05-06T01:57:14.653Z,0
2017-05-06T01:58:15.925Z,0
2017-05-06T01:59:17.203Z,0
2017-05-06T02:00:18.589Z,0
2017-05-06T02:01:19.873Z,0
2017-05-06T02:02:21.121Z,0
2017-05-06T02:03:22.443Z,0
2017-05-06T02:04:23.682Z,0
2017-05-06T02:05:24.976Z,0
2017-05-06T02:06:26.226Z,0
2017-05-06T02:07:27.507Z,0
2017-05-06T02:08:28.745Z,0
2017-05-06T02:09:29.998Z,0
2017-05-06T02:10:31.405Z,0
2017-05-06T02:11:32.738Z,0
2017-05-06T02:12:34.005Z,0
2017-05-06T02:13:35.266Z,0
2017-05-06T02:14:36.507Z,0
2017-05-06T02:15:37.796Z,0
2017-05-06T02:16:39.076Z,0
2017-05-06T02:17:40.360Z,0
2017-05-06T02:18:41.666Z,0
2017-05-06T02:19:42.920Z,0
2017-05-06T02:20:44.141Z,0
2017-05-06T02:21:45.412Z,0
2017-05-06T02:22:46.647Z,0
2017-05-06T02:23:47.920Z,0
2017-05-06T02:24:49.175Z,0
2017-05-06T02:25:50.479Z,0
2017-05-06T02:26:51.718Z,0
2017-05-06T02:27:52.946Z,0
2017-05-06T02:28:54.210Z,0
2017-05-06T02:29:55.460Z,0
2017-05-06T02:30:56.725Z,0
2017-05-06T02:31:57.965Z,0
2017-05-06T02:32:59.209Z,0
2017-05-06T02:34:00.446Z,0
2017-05-06T02:35:01.736Z,0
2017-05-06T02:36:02.969Z,0
2017-05-06T02:37:04.220Z,0
2017-05-06T02:38:05.556Z,0
2017-05-06T02:39:06.937Z,0
2017-05-06T02:40:08.278Z,0
2017-05-06T02:41:09.532Z,0
2017-05-06T02:42:10.791Z,0
2017-05-06T02:43:12.054Z,0
2017-05-06T02:44:13.301Z,0
2017-05-06T02:45:14.570Z,0
2017-05-06T02:46:15.830Z,0
2017-05-06T02:47:17.066Z,0
2017-05-06T02:48:18.335Z,0
2017-05-06T02:49:19.585Z,0
2017-05-06T02:50:21.075Z,0
2017-05-06T02:51:22.400Z,0
2017-05-06T02:52:23.661Z,0
2017-05-06T02:53:24.918Z,0
2017-05-06T02:54:26.185Z,0
2017-05-06T02:55:27.479Z,0
2017-05-06T02:56:28.709Z,0
2017-05-06T02:57:29.954Z,0
2017-05-06T02:58:31.223Z,0
2017-05-06T02:59:32.522Z,0
2017-05-06T03:00:33.792Z,0
2017-05-06T03:01:35.040Z,0
2017-05-06T03:02:36.425Z,0
2017-05-06T03:03:37.680Z,0
2017-05-06T03:04:38.961Z,0
2017-05-06T03:05:40.315Z,0
2017-05-06T03:06:41.577Z,0
2017-05-06T03:07:42.821Z,0
2017-05-06T03:08:44.089Z,0
2017-05-06T03:09:45.372Z,0
2017-05-06T03:10:46.617Z,0
2017-05-06T03:11:47.938Z,0
2017-05-06T03:12:49.258Z,0
2017-05-06T03:13:50.523Z,0
2017-05-06T03:14:51.764Z,0
2017-05-06T03:15:53.032Z,0
2017-05-06T03:16:54.366Z,0
2017-05-06T03:17:55.625Z,0
2017-05-06T03:18:56.934Z,0
2017-05-06T03:19:58.231Z,0
2017-05-06T03:20:59.499Z,0
2017-05-06T03:22:00.783Z,0
2017-05-06T03:23:02.072Z,0
2017-05-06T03:24:03.282Z,0
2017-05-06T03:25:04.716Z,0
2017-05-06T03:26:05.967Z,0
2017-05-06T03:27:07.226Z,0
2017-05-06T03:28:08.482Z,0
2017-05-06T03:29:09.810Z,0
2017-05-06T03:30:11.063Z,0
2017-05-06T03:31:12.340Z,0
2017-05-06T03:32:13.579Z,0
2017-05-06T03:33:14.821Z,0
2017-05-06T03:34:16.183Z,0
2017-05-06T03:35:17.431Z,0
2017-05-06T03:36:18.700Z,0
2017-05-06T03:37:20.066Z,0
2017-05-06T03:38:21.305Z,0
2017-05-06T03:39:22.553Z,0
2017-05-06T03:40:23.845Z,0
2017-05-06T03:41:25.138Z,5
2017-05-06T03:42:26.385Z,5
2017-05-06T03:43:27.652Z,5
2017-05-06T03:44:28.891Z,5
2017-05-06T03:45:30.144Z,5
2017-05-06T03:46:31.409Z,5
2017-05-06T03:47:32.683Z,5
2017-05-06T03:48:34.046Z,10
2017-05-06T03:49:35.281Z,10
2017-05-06T03:50:36.606Z,10
2017-05-06T03:51:37.845Z,10
2017-05-06T03:52:39.111Z,10
2017-05-06T03:53:40.330Z,10
2017-05-06T03:54:41.585Z,15
2017-05-06T03:55:42.847Z,15
2017-05-06T03:56:44.127Z,15
2017-05-06T03:57:45.390Z,15
2017-05-06T03:58:46.615Z,15
2017-05-06T03:59:47.923Z,15
2017-05-06T04:00:49.178Z,15
2017-05-06T04:01:50.421Z,15
2017-05-06T04:02:51.695Z,15
2017-05-06T04:03:52.947Z,15
2017-05-06T04:04:54.232Z,15
2017-05-06T04:05:55.521Z,20
2017-05-06T04:06:56.750Z,20
2017-05-06T04:07:58.036Z,20
2017-05-06T04:08:59.280Z,20
2017-05-06T04:10:00.535Z,25
2017-05-06T04:11:01.784Z,25
2017-05-06T04:12:03.050Z,25
2017-05-06T04:13:04.349Z,30
2017-05-06T04:14:05.573Z,30
2017-05-06T04:15:06.853Z,30
2017-05-06T04:16:08.185Z,30
2017-05-06T04:17:09.477Z,30
2017-05-06T04:18:10.702Z,30
2017-05-06T04:19:12.074Z,30
2017-05-06T04:20:13.360Z,35
2017-05-06T04:21:14.626Z,35
2017-05-06T04:22:15.886Z,35
2017-05-06T04:23:17.134Z,35
2017-05-06T04:24:18.422Z,35
2017-05-06T04:25:19.655Z,40
2017-05-06T04:26:20.923Z,40
2017-05-06T04:27:22.212Z,40
2017-05-06T04:28:23.472Z,45
2017-05-06T04:29:24.699Z,50
2017-05-06T04:30:26.046Z,45
2017-05-06T04:31:27.316Z,50
2017-05-06T04:32:28.594Z,50
2017-05-06T04:33:29.880Z,55
2017-05-06T04:34:31.204Z,55
2017-05-06T04:35:32.493Z,50
2017-05-06T04:36:33.760Z,55
2017-05-06T04:37:35.063Z,60
2017-05-06T04:38:36.292Z,60
2017-05-06T04:39:37.571Z,60
2017-05-06T04:40:38.808Z,60
2017-05-06T04:41:40.199Z,65
2017-05-06T04:42:41.384Z,65
2017-05-06T04:43:42.785Z,65
2017-05-06T04:44:44.008Z,70
2017-05-06T04:45:45.277Z,70
2017-05-06T04:46:46.525Z,70
2017-05-06T04:47:47.773Z,80
2017-05-06T04:48:49.036Z,75
2017-05-06T04:49:50.287Z,75
2017-05-06T04:50:51.542Z,75
2017-05-06T04:51:52.829Z,85
2017-05-06T04:52:54.060Z,80
2017-05-06T04:53:55.293Z,90
2017-05-06T04:54:56.552Z,95
2017-05-06T04:55:57.793Z,85
2017-05-06T04:56:59.041Z,100
2017-05-06T04:58:00.583Z,105
2017-05-06T04:59:01.864Z,100
2017-05-06T05:00:03.123Z,110
2017-05-06T05:01:04.460Z,110
2017-05-06T05:02:05.715Z,115
2017-05-06T05:03:07.049Z,115
2017-05-06T05:04:08.345Z,115
2017-05-06T05:05:09.615Z,130
2017-05-06T05:06:10.835Z,120
2017-05-06T05:07:12.117Z,125
2017-05-06T05:08:13.390Z,130
2017-05-06T05:09:14.671Z,135
2017-05-06T05:10:15.973Z,155
2017-05-06T05:11:17.246Z,140
2017-05-06T05:12:18.513Z,150
2017-05-06T05:13:19.763Z,145
2017-05-06T05:14:21.062Z,145
2017-05-06T05:15:22.455Z,140
2017-05-06T05:16:23.739Z,135
2017-05-06T05:17:24.986Z,145
2017-05-06T05:18:26.272Z,140
2017-05-06T05:19:27.555Z,130
2017-05-06T05:20:28.891Z,125
2017-05-06T05:21:30.120Z,140
2017-05-06T05:22:31.382Z,135
2017-05-06T05:23:32.625Z,140
2017-05-06T05:24:33.886Z,145
2017-05-06T05:25:35.130Z,145
2017-05-06T05:26:36.494Z,135
2017-05-06T05:27:37.749Z,145
2017-05-06T05:28:39.024Z,145
2017-05-06T05:29:40.295Z,145
2017-05-06T05:30:41.554Z,140
2017-05-06T05:31:42.854Z,150
2017-05-06T05:32:44.127Z,165
2017-05-06T05:33:45.366Z,150
2017-05-06T05:34:46.604Z,170
2017-05-06T05:35:47.858Z,165
2017-05-06T05:36:49.087Z,170
2017-05-06T05:37:50.341Z,200
2017-05-06T05:38:51.591Z,200
2017-05-06T05:39:52.872Z,195
2017-05-06T05:40:54.500Z,195
2017-05-06T05:41:55.803Z,180
2017-05-06T05:42:57.027Z,190
2017-05-06T05:43:58.327Z,195
2017-05-06T05:44:59.591Z,215
2017-05-06T05:46:00.867Z,210
2017-05-06T05:47:02.139Z,270
2017-05-06T05:48:03.428Z,265
2017-05-06T05:49:04.714Z,265
2017-05-06T05:50:06.008Z,260
2017-05-06T05:51:07.271Z,235
2017-05-06T05:52:08.661Z,275
2017-05-06T05:53:09.941Z,290
2017-05-06T05:54:11.194Z,310
2017-05-06T05:55:12.466Z,355
2017-05-06T05:56:13.694Z,345
2017-05-06T05:57:14.955Z,435
2017-05-06T05:58:16.284Z,425
2017-05-06T05:59:17.535Z,450
2017-05-06T06:00:18.800Z,550
2017-05-06T06:01:20.122Z,600
2017-05-06T06:02:21.360Z,755
2017-05-06T06:03:22.680Z,550
2017-05-06T06:04:23.910Z,580
2017-05-06T06:05:25.173Z,665
2017-05-06T06:06:26.451Z,690
2017-05-06T06:07:27.817Z,655
2017-05-06T06:08:29.091Z,805
2017-05-06T06:09:30.403Z,710
2017-05-06T06:10:31.634Z,800
2017-05-06T06:11:32.900Z,1010
2017-05-06T06:12:34.145Z,1040
2017-05-06T06:13:35.463Z,800
2017-05-06T06:14:36.720Z,1005
2017-05-06T06:15:37.981Z,1160
2017-05-06T06:16:39.210Z,1095
2017-05-06T06:17:40.489Z,1140
2017-05-06T06:18:41.817Z,1160
2017-05-06T06:19:43.093Z,1230
2017-05-06T06:20:44.352Z,1170
2017-05-06T06:21:45.615Z,1170
2017-05-06T06:22:46.875Z,1335
2017-05-06T06:23:48.153Z,1275
2017-05-06T06:24:49.413Z,1100
2017-05-06T06:25:50.673Z,1190
2017-05-06T06:26:51.913Z,1305
2017-05-06T06:27:53.227Z,1335
2017-05-06T06:28:54.481Z,1355
2017-05-06T06:29:55.746Z,1355
2017-05-06T06:30:57.023Z,1330
2017-05-06T06:31:58.270Z,1340
2017-05-06T06:32:59.529Z,1255
2017-05-06T06:34:00.764Z,1170
2017-05-06T06:35:02.026Z,1015
2017-05-06T06:36:03.324Z,940
2017-05-06T06:37:04.680Z,960
2017-05-06T06:38:05.954Z,900
2017-05-06T06:39:07.187Z,1025
2017-05-06T06:40:08.470Z,1025
2017-05-06T06:41:09.748Z,1230
2017-05-06T06:42:10.984Z,1335
2017-05-06T06:43:12.294Z,1280
2017-05-06T06:44:13.554Z,1315
2017-05-06T06:45:14.819Z,1565
2017-05-06T06:46:16.076Z,1425
2017-05-06T06:47:17.366Z,985
2017-05-06T06:48:18.626Z,1040
2017-05-06T06:49:20.032Z,1765
2017-05-06T06:50:21.326Z,1375
2017-05-06T06:51:22.610Z,1560
2017-05-06T06:52:23.892Z,1840
2017-05-06T06:53:25.145Z,1850
2017-05-06T06:54:26.408Z,1840
2017-05-06T06:55:27.656Z,1825
2017-05-06T06:56:28.910Z,1895
2017-05-06T06:57:30.185Z,1720
2017-05-06T06:58:31.418Z,1885
2017-05-06T06:59:32.699Z,1970
2017-05-06T07:00:33.976Z,1900
2017-05-06T07:01:35.306Z,2060
2017-05-06T07:02:36.631Z,2105
2017-05-06T07:03:37.897Z,1845
2017-05-06T07:04:39.186Z,1480
2017-05-06T07:05:40.457Z,890
2017-05-06T07:06:41.713Z,900
2017-05-06T07:07:43.060Z,1790
2017-05-06T07:08:44.340Z,2025
2017-05-06T07:09:45.646Z,1330
2017-05-06T07:10:46.953Z,2270
2017-05-06T07:11:48.230Z,865
2017-05-06T07:12:49.495Z,1265
2017-05-06T07:13:50.866Z,2085
2017-05-06T07:14:52.238Z,1855
2017-05-06T07:15:53.499Z,1980
2017-05-06T07:16:54.779Z,1275
2017-05-06T07:17:56.025Z,2310
2017-05-06T07:18:57.293Z,715
2017-05-06T07:19:58.544Z,1640
2017-05-06T07:20:59.862Z,2070
2017-05-06T07:22:01.110Z,1185
2017-05-06T07:23:02.380Z,2125
2017-05-06T07:24:03.651Z,1360
2017-05-06T07:25:04.899Z,865
2017-05-06T07:26:06.167Z,840
2017-05-06T07:27:07.425Z,2075
2017-05-06T07:28:08.684Z,1925
2017-05-06T07:29:09.945Z,730
2017-05-06T07:30:11.204Z,1505
2017-05-06T07:31:12.494Z,970
2017-05-06T07:32:13.792Z,1420
2017-05-06T07:33:15.040Z,995
2017-05-06T07:34:16.330Z,1115
2017-05-06T07:35:17.621Z,830
2017-05-06T07:36:18.915Z,965
2017-05-06T07:37:20.177Z,1930
2017-05-06T07:38:21.473Z,2520
2017-05-06T07:39:22.807Z,925
2017-05-06T07:40:24.071Z,715
2017-05-06T07:41:25.305Z,1260
2017-05-06T07:42:26.579Z,750
2017-05-06T07:43:27.829Z,820
2017-05-06T07:44:29.210Z,840
2017-05-06T07:45:30.544Z,1635
2017-05-06T07:46:31.830Z,1260
2017-05-06T07:47:33.073Z,895
2017-05-06T07:48:34.346Z,2395
2017-05-06T07:49:35.664Z,2735
2017-05-06T07:50:36.944Z,1955
2017-05-06T07:51:38.225Z,2440
2017-05-06T07:52:39.504Z,2420
2017-05-06T07:53:40.760Z,1070
2017-05-06T07:54:42.002Z,2435
2017-05-06T07:55:43.275Z,2275
2017-05-06T07:56:44.533Z,950
2017-05-06T07:57:45.784Z,1145
2017-05-06T07:58:47.032Z,875
2017-05-06T07:59:48.400Z,1495
2017-05-06T08:00:49.587Z,855
2017-05-06T08:01:50.850Z,2065
2017-05-06T08:02:52.071Z,2715
2017-05-06T08:03:53.345Z,2760
2017-05-06T08:04:54.626Z,2660
2017-05-06T08:05:55.916Z,2630
2017-05-06T08:06:57.188Z,2835
2017-05-06T08:07:58.450Z,2425
2017-05-06T08:08:59.732Z,1495
2017-05-06T08:10:01.018Z,1240
2017-05-06T08:11:02.456Z,1920
2017-05-06T08:12:03.712Z,2735
2017-05-06T08:13:04.978Z,2490
2017-05-06T08:14:06.230Z,2520
2017-05-06T08:15:07.499Z,2585
2017-05-06T08:16:08.858Z,1925
2017-05-06T08:17:10.119Z,2505
2017-05-06T08:18:11.370Z,2645
2017-05-06T08:19:12.684Z,1030
2017-05-06T08:20:13.992Z,945
2017-05-06T08:21:15.297Z,920
2017-05-06T08:22:16.506Z,1555
2017-05-06T08:23:17.751Z,2750
2017-05-06T08:24:19.030Z,2760
2017-05-06T08:25:20.395Z,1110
2017-05-06T08:26:21.650Z,1975
2017-05-06T08:27:22.927Z,1115
2017-05-06T08:28:24.226Z,2025
2017-05-06T08:29:25.459Z,1085
2017-05-06T08:30:26.723Z,1025
2017-05-06T08:31:28.003Z,3030
2017-05-06T08:32:29.302Z,1560
2017-05-06T08:33:30.535Z,1090
2017-05-06T08:34:31.777Z,895
2017-05-06T08:35:33.052Z,1225
2017-05-06T08:36:34.361Z,1105
2017-05-06T08:37:35.638Z,1715
2017-05-06T08:38:36.860Z,1000
2017-05-06T08:39:38.131Z,1290
2017-05-06T08:40:39.377Z,2185
2017-05-06T08:41:40.698Z,2480
2017-05-06T08:42:42.143Z,3095
2017-05-06T08:43:43.300Z,3080
2017-05-06T08:44:44.575Z,3110
2017-05-06T08:45:45.900Z,2980
2017-05-06T08:46:47.163Z,2865
2017-05-06T08:47:48.488Z,3040
2017-05-06T08:48:49.774Z,2965
2017-05-06T08:49:51.031Z,2955
2017-05-06T08:50:52.275Z,2770
2017-05-06T08:51:53.559Z,2705
2017-05-06T08:52:54.811Z,2580
2017-05-06T08:53:56.096Z,2480
2017-05-06T08:54:57.335Z,2665
2017-05-06T08:55:58.628Z,2905
2017-05-06T08:56:59.903Z,2695
2017-05-06T08:58:01.213Z,3065
2017-05-06T08:59:02.503Z,2950
2017-05-06T09:00:03.774Z,3270
2017-05-06T09:01:05.021Z,3180
2017-05-06T09:02:06.344Z,2610
2017-05-06T09:03:07.609Z,2955
2017-05-06T09:04:08.893Z,2925
2017-05-06T09:05:10.187Z,3235
2017-05-06T09:06:11.472Z,3365
2017-05-06T09:07:12.741Z,3415
2017-05-06T09:08:14.019Z,3330
2017-05-06T09:09:15.329Z,3135
2017-05-06T09:10:16.587Z,3250
2017-05-06T09:11:17.857Z,3215
2017-05-06T09:12:19.166Z,3020
2017-05-06T09:13:20.501Z,3295
2017-05-06T09:14:21.853Z,3435
2017-05-06T09:15:23.115Z,3395
2017-05-06T09:16:24.471Z,3410
2017-05-06T09:17:25.715Z,3530
2017-05-06T09:18:26.980Z,3505
2017-05-06T09:19:28.330Z,3445
2017-05-06T09:20:29.685Z,3565
2017-05-06T09:21:30.977Z,3625
2017-05-06T09:22:32.273Z,3550
2017-05-06T09:23:33.507Z,3455
2017-05-06T09:24:34.867Z,3520
2017-05-06T09:25:36.130Z,3600
2017-05-06T09:26:37.438Z,3540
2017-05-06T09:27:38.704Z,3395
2017-05-06T09:28:39.975Z,3555
2017-05-06T09:29:41.311Z,3630
2017-05-06T09:30:42.657Z,3655
2017-05-06T09:31:43.934Z,3580
2017-05-06T09:32:45.179Z,3595
2017-05-06T09:33:46.470Z,3505
2017-05-06T09:34:47.771Z,3090
2017-05-06T09:35:49.108Z,3640
2017-05-06T09:36:50.433Z,3565
2017-05-06T09:37:51.717Z,3650
2017-05-06T09:38:52.999Z,3655
2017-05-06T09:39:54.307Z,3715
2017-05-06T09:40:55.563Z,3590
2017-05-06T09:41:56.895Z,3615
2017-05-06T09:42:58.169Z,3660
2017-05-06T09:43:59.413Z,3735
2017-05-06T09:45:00.798Z,3765
2017-05-06T09:46:02.058Z,3895
2017-05-06T09:47:03.329Z,3875
2017-05-06T09:48:04.648Z,3790
2017-05-06T09:49:05.948Z,3860
2017-05-06T09:50:07.201Z,3860
2017-05-06T09:51:08.525Z,3580
2017-05-06T09:52:09.781Z,2095
2017-05-06T09:53:11.043Z,3025
2017-05-06T09:54:12.296Z,3155
2017-05-06T09:55:13.576Z,3470
2017-05-06T09:56:14.839Z,3825
2017-05-06T09:57:16.114Z,3390
2017-05-06T09:58:17.403Z,3230
2017-05-06T09:59:18.696Z,3390
2017-05-06T10:00:20.003Z,3580
2017-05-06T10:01:21.272Z,2950
2017-05-06T10:02:22.673Z,3115
2017-05-06T10:03:23.966Z,3575
2017-05-06T10:04:25.213Z,3460
2017-05-06T10:05:26.610Z,3525
2017-05-06T10:06:27.861Z,3745
2017-05-06T10:07:29.126Z,3610
2017-05-06T10:08:30.425Z,3770
2017-05-06T10:09:31.673Z,3540
2017-05-06T10:10:32.949Z,2975
2017-05-06T10:11:34.203Z,2795
2017-05-06T10:12:35.505Z,3030
2017-05-06T10:13:36.738Z,2830
2017-05-06T10:14:38.001Z,2815
2017-05-06T10:15:39.276Z,2660
2017-05-06T10:16:40.654Z,2860
2017-05-06T10:17:42.050Z,2395
2017-05-06T10:18:43.323Z,2590
2017-05-06T10:19:44.691Z,2450
2017-05-06T10:20:46.221Z,2380
2017-05-06T10:21:47.510Z,2735
2017-05-06T10:22:48.836Z,2920
2017-05-06T10:23:50.122Z,3145
2017-05-06T10:24:51.411Z,2655
2017-05-06T10:25:52.697Z,3035
2017-05-06T10:26:54.036Z,2840
2017-05-06T10:27:55.284Z,2695
2017-05-06T10:28:56.572Z,2780
2017-05-06T10:29:57.849Z,2935
2017-05-06T10:30:59.130Z,2710
2017-05-06T10:32:00.427Z,2560
2017-05-06T10:33:01.733Z,1615
2017-05-06T10:34:03.027Z,650
2017-05-06T10:35:04.348Z,625
2017-05-06T10:36:05.621Z,670
2017-05-06T10:37:06.917Z,755
2017-05-06T10:38:08.213Z,795
2017-05-06T10:39:09.508Z,825
2017-05-06T10:40:10.825Z,935
2017-05-06T10:41:12.079Z,940
2017-05-06T10:42:13.341Z,785
2017-05-06T10:43:14.619Z,650
2017-05-06T10:44:15.954Z,610
2017-05-06T10:45:17.232Z,670
2017-05-06T10:46:18.559Z,720
2017-05-06T10:47:19.850Z,745
2017-05-06T10:48:21.117Z,825
2017-05-06T10:49:22.354Z,870
2017-05-06T10:50:23.754Z,860
2017-05-06T10:51:25.063Z,830
2017-05-06T10:52:26.311Z,755
2017-05-06T10:53:27.620Z,590
2017-05-06T10:54:28.882Z,570
2017-05-06T10:55:30.165Z,570
2017-05-06T10:56:31.435Z,605
2017-05-06T10:57:32.824Z,640
2017-05-06T10:58:34.073Z,745
2017-05-06T10:59:35.349Z,810
2017-05-06T11:00:36.739Z,820
2017-05-06T11:01:38.040Z,890
2017-05-06T11:02:39.301Z,905
2017-05-06T11:03:40.594Z,855
2017-05-06T11:04:41.840Z,835
2017-05-06T11:05:43.158Z,795
2017-05-06T11:06:44.437Z,815
2017-05-06T11:07:45.729Z,795
2017-05-06T11:08:47.029Z,685
2017-05-06T11:09:48.310Z,720
2017-05-06T11:10:49.572Z,575
2017-05-06T11:11:50.865Z,565
2017-05-06T11:12:52.136Z,565
2017-05-06T11:13:53.509Z,565
2017-05-06T11:14:54.774Z,630
2017-05-06T11:15:56.053Z,650
2017-05-06T11:16:57.322Z,745
2017-05-06T11:17:58.579Z,760
2017-05-06T11:18:59.858Z,835
2017-05-06T11:20:01.167Z,775
2017-05-06T11:21:02.466Z,590
2017-05-06T11:22:03.802Z,575
2017-05-06T11:23:05.042Z,620
2017-05-06T11:24:06.359Z,660
2017-05-06T11:25:07.669Z,725
2017-05-06T11:26:08.915Z,735
2017-05-06T11:27:10.192Z,700
2017-05-06T11:28:11.489Z,680
2017-05-06T11:29:12.841Z,715
2017-05-06T11:30:14.189Z,735
2017-05-06T11:31:15.531Z,650
2017-05-06T11:32:16.750Z,655
2017-05-06T11:33:18.010Z,635
2017-05-06T11:34:19.276Z,620
2017-05-06T11:35:20.584Z,680
2017-05-06T11:36:21.899Z,700
2017-05-06T11:37:23.178Z,660
2017-05-06T11:38:24.443Z,605
2017-05-06T11:39:25.740Z,575
2017-05-06T11:40:26.965Z,490
2017-05-06T11:41:28.241Z,460
2017-05-06T11:42:29.485Z,445
2017-05-06T11:43:30.848Z,440
2017-05-06T11:44:32.117Z,440
2017-05-06T11:45:33.369Z,480
2017-05-06T11:46:34.658Z,510
2017-05-06T11:47:35.946Z,545
2017-05-06T11:48:37.333Z,490
2017-05-06T11:49:38.729Z,500
2017-05-06T11:50:40.020Z,485
2017-05-06T11:51:41.288Z,455
2017-05-06T11:52:42.556Z,485
2017-05-06T11:53:43.825Z,545
2017-05-06T11:54:45.179Z,620
2017-05-06T11:55:46.436Z,720
2017-05-06T11:56:47.696Z,750
2017-05-06T11:57:48.970Z,690
2017-05-06T11:58:50.271Z,635
2017-05-06T11:59:51.605Z,650
2017-05-06T12:00:52.875Z,700
2017-05-06T12:01:54.127Z,670
2017-05-06T12:02:55.426Z,615
2017-05-06T12:03:56.721Z,560
2017-05-06T12:04:58.006Z,515
2017-05-06T12:05:59.360Z,525
2017-05-06T12:07:00.677Z,525
2017-05-06T12:08:01.916Z,525
2017-05-06T12:09:03.170Z,550
2017-05-06T12:10:04.448Z,515
2017-05-06T12:11:05.825Z,510
2017-05-06T12:12:07.010Z,480
2017-05-06T12:13:08.396Z,475
2017-05-06T12:14:09.695Z,440
2017-05-06T12:15:10.928Z,400
2017-05-06T12:16:12.236Z,410
2017-05-06T12:17:13.507Z,405
2017-05-06T12:18:14.835Z,400
2017-05-06T12:19:16.145Z,405
2017-05-06T12:20:17.446Z,425
2017-05-06T12:21:18.690Z,440
2017-05-06T12:22:19.961Z,440
2017-05-06T12:23:21.210Z,465
2017-05-06T12:24:22.495Z,480
2017-05-06T12:25:23.754Z,425
2017-05-06T12:26:25.030Z,440
2017-05-06T12:27:26.371Z,505
2017-05-06T12:28:27.545Z,570
2017-05-06T12:29:28.833Z,550
2017-05-06T12:30:30.133Z,500
2017-05-06T12:31:31.352Z,445
2017-05-06T12:32:32.637Z,445
2017-05-06T12:33:33.947Z,465
2017-05-06T12:34:35.157Z,450
2017-05-06T12:35:36.454Z,420
2017-05-06T12:36:37.707Z,420
2017-05-06T12:37:38.979Z,440
2017-05-06T12:38:40.250Z,445
2017-05-06T12:39:41.536Z,440
2017-05-06T12:40:42.879Z,415
2017-05-06T12:41:44.251Z,350
2017-05-06T12:42:45.574Z,355
2017-05-06T12:43:46.830Z,395
2017-05-06T12:44:48.123Z,425
2017-05-06T12:45:49.385Z,510
2017-05-06T12:46:50.647Z,605
2017-05-06T12:47:52.011Z,575
2017-05-06T12:48:53.257Z,550
2017-05-06T12:49:54.595Z,535
2017-05-06T12:50:55.870Z,540
2017-05-06T12:51:57.248Z,570
2017-05-06T12:52:58.502Z,570
2017-05-06T12:53:59.771Z,495
2017-05-06T12:55:01.079Z,410
2017-05-06T12:56:02.319Z,380
2017-05-06T12:57:03.589Z,390
2017-05-06T12:58:04.831Z,390
2017-05-06T12:59:06.146Z,375
2017-05-06T13:00:07.388Z,380
2017-05-06T13:01:08.658Z,390
2017-05-06T13:02:09.920Z,425
2017-05-06T13:03:11.165Z,460
2017-05-06T13:04:12.545Z,485
2017-05-06T13:05:13.845Z,495
2017-05-06T13:06:15.184Z,505
2017-05-06T13:07:16.478Z,430
2017-05-06T13:08:17.775Z,410
2017-05-06T13:09:19.056Z,415
2017-05-06T13:10:20.398Z,405
2017-05-06T13:11:21.676Z,415
2017-05-06T13:12:22.957Z,425
2017-05-06T13:13:24.205Z,450
2017-05-06T13:14:25.506Z,475
2017-05-06T13:15:26.799Z,500
2017-05-06T13:16:28.048Z,475
2017-05-06T13:17:29.320Z,445
2017-05-06T13:18:30.601Z,425
2017-05-06T13:19:31.884Z,435
2017-05-06T13:20:33.186Z,410
2017-05-06T13:21:34.495Z,395
2017-05-06T13:22:35.740Z,390
2017-05-06T13:23:36.994Z,410
2017-05-06T13:24:38.277Z,435
2017-05-06T13:25:39.535Z,470
2017-05-06T13:26:40.793Z,510
2017-05-06T13:27:42.070Z,515
2017-05-06T13:28:43.343Z,475
2017-05-06T13:29:44.766Z,455
2017-05-06T13:30:46.022Z,440
2017-05-06T13:31:47.292Z,420
2017-05-06T13:32:48.674Z,445
2017-05-06T13:33:49.986Z,465
2017-05-06T13:34:51.256Z,495
2017-05-06T13:35:52.557Z,505
2017-05-06T13:36:53.792Z,460
2017-05-06T13:37:55.121Z,420
2017-05-06T13:38:56.448Z,400
2017-05-06T13:39:57.713Z,375
2017-05-06T13:40:59.067Z,345
2017-05-06T13:42:00.335Z,335
2017-05-06T13:43:01.635Z,345
2017-05-06T13:44:02.896Z,345
2017-05-06T13:45:04.167Z,365
2017-05-06T13:46:05.421Z,395
2017-05-06T13:47:06.746Z,420
2017-05-06T13:48:08.019Z,425
2017-05-06T13:49:09.298Z,420
2017-05-06T13:50:10.553Z,395
2017-05-06T13:51:11.829Z,380
2017-05-06T13:52:13.132Z,360
2017-05-06T13:53:14.479Z,355
2017-05-06T13:54:15.766Z,345
2017-05-06T13:55:16.974Z,330
2017-05-06T13:56:18.300Z,330
2017-05-06T13:57:19.651Z,320
2017-05-06T13:58:20.957Z,320
2017-05-06T13:59:22.235Z,310
2017-05-06T14:00:23.465Z,310
2017-05-06T14:01:24.795Z,310
2017-05-06T14:02:26.170Z,315
2017-05-06T14:03:27.496Z,320
2017-05-06T14:04:28.749Z,330
2017-05-06T14:05:30.012Z,335
2017-05-06T14:06:31.313Z,345
2017-05-06T14:07:32.617Z,380
2017-05-06T14:08:33.930Z,395
2017-05-06T14:09:35.240Z,410
2017-05-06T14:10:36.517Z,420
2017-05-06T14:11:37.790Z,395
2017-05-06T14:12:39.073Z,380
2017-05-06T14:13:40.395Z,385